Time;durP1;ratioP1;P1;durP2;ratioP2;P2;SDS_P1;SDS_P2;PMS_P1;PMS_P2;Temp;Humidity;BMP_temperature;BMP_pressure;BME280_temperature;BME280_humidity;BME280_pressure;Samples;Min_cycle;Max_cycle;Signal;HPM_P1;HPM_P2
2024/03/01 00:02:15;;;;;;;7.93;5.43;;;;;;;;;;6272412;28;20469;-81
2024/03/01 00:05:16;;;;;;;9.27;5.80;;;;;;;;;;6298163;28;21297;-81
2024/03/01 00:08:16;;;;;;;7.23;5.57;;;;;;;;;;6290877;28;20023;-81
2024/03/01 00:11:16;;;;;;;7.40;5.23;;;;;;;;;;6269684;28;20526;-81
2024/03/01 00:14:16;;;;;;;5.67;5.07;;;;;;;;;;6277032;28;20156;-81
2024/03/01 00:17:17;;;;;;;7.27;5.47;;;;;;;;;;6296065;28;20017;-81
2024/03/01 00:20:17;;;;;;;6.47;5.37;;;;;;;;;;6289820;28;20021;-81
2024/03/01 00:23:17;;;;;;;5.27;4.53;;;;;;;;;;6277763;28;20032;-80
2024/03/01 00:26:18;;;;;;;7.85;5.90;;;;;;;;;;6294993;28;20020;-84
2024/03/01 00:29:18;;;;;;;6.80;5.60;;;;;;;;;;6289260;28;20075;-81
2024/03/01 00:32:18;;;;;;;6.63;5.33;;;;;;;;;;6278641;28;20027;-81
2024/03/01 00:35:18;;;;;;;7.23;5.93;;;;;;;;;;6291475;28;20037;-81
2024/03/01 00:38:20;;;;;;;8.13;5.77;;;;;;;;;;6289835;28;20021;-82
2024/03/01 00:41:20;;;;;;;7.88;5.78;;;;;;;;;;6289157;28;20040;-84
2024/03/01 00:44:21;;;;;;;7.10;5.50;;;;;;;;;;6287378;28;20477;-82
2024/03/01 00:47:21;;;;;;;7.05;5.55;;;;;;;;;;6274353;28;20374;-82
2024/03/01 00:50:21;;;;;;;6.23;5.57;;;;;;;;;;6270668;28;20378;-81
2024/03/01 00:53:22;;;;;;;8.30;5.67;;;;;;;;;;6285026;28;20024;-81
2024/03/01 00:56:22;;;;;;;7.53;5.80;;;;;;;;;;6265856;28;20039;-80
2024/03/01 00:59:23;;;;;;;7.60;5.63;;;;;;;;;;6290046;28;20029;-81
2024/03/01 01:02:23;;;;;;;7.40;6.22;;;;;;;;;;6286828;28;20057;-85
2024/03/01 01:05:23;;;;;;;7.13;5.67;;;;;;;;;;6294772;28;20032;-86
2024/03/01 01:08:24;;;;;;;7.33;6.17;;;;;;;;;;6287301;28;20020;-86
2024/03/01 01:11:24;;;;;;;6.63;5.57;;;;;;;;;;6289563;28;20152;-86
2024/03/01 01:14:25;;;;;;;7.47;6.00;;;;;;;;;;6311306;28;20044;-86
2024/03/01 01:17:26;;;;;;;7.50;6.00;;;;;;;;;;6314817;28;20405;-86
2024/03/01 01:20:27;;;;;;;7.50;6.05;;;;;;;;;;6282725;28;20013;-86
2024/03/01 01:23:27;;;;;;;7.17;5.97;;;;;;;;;;6307064;28;20096;-86
2024/03/01 01:26:28;;;;;;;7.10;5.67;;;;;;;;;;6318717;28;20027;-86
2024/03/01 01:29:28;;;;;;;8.13;5.90;;;;;;;;;;6318563;28;20470;-85
2024/03/01 01:32:29;;;;;;;7.27;5.93;;;;;;;;;;6296335;28;20028;-86
2024/03/01 01:35:29;;;;;;;7.67;5.67;;;;;;;;;;6319827;28;20032;-86
2024/03/01 01:38:29;;;;;;;8.07;6.17;;;;;;;;;;6309981;28;20023;-86
2024/03/01 01:41:29;;;;;;;8.30;5.53;;;;;;;;;;6312435;28;20434;-86
2024/03/01 01:44:30;;;;;;;8.53;5.77;;;;;;;;;;6303167;28;20021;-86
2024/03/01 01:47:30;;;;;;;8.03;5.97;;;;;;;;;;6299865;28;20077;-85
2024/03/01 01:50:30;;;;;;;9.73;5.73;;;;;;;;;;6294915;28;20016;-86
2024/03/01 01:53:31;;;;;;;7.30;5.67;;;;;;;;;;6316381;28;20111;-86
2024/03/01 01:56:31;;;;;;;7.05;5.28;;;;;;;;;;6319330;28;20068;-86
2024/03/01 01:59:32;;;;;;;7.37;5.43;;;;;;;;;;6319165;28;20028;-86
2024/03/01 02:02:33;;;;;;;8.00;5.90;;;;;;;;;;6320140;28;20024;-86
2024/03/01 02:05:34;;;;;;;6.68;4.88;;;;;;;;;;6317887;28;20024;-86
2024/03/01 02:08:35;;;;;;;10.15;5.28;;;;;;;;;;6319705;28;20028;-85
2024/03/01 02:11:35;;;;;;;6.10;5.25;;;;;;;;;;6320872;28;20024;-86
2024/03/01 02:14:35;;;;;;;8.30;5.43;;;;;;;;;;6320481;28;20120;-86
2024/03/01 02:17:36;;;;;;;6.67;5.07;;;;;;;;;;6323214;28;20066;-86
2024/03/01 02:20:38;;;;;;;6.67;5.37;;;;;;;;;;6324409;28;20461;-86
2024/03/01 02:23:38;;;;;;;6.20;5.10;;;;;;;;;;6325656;28;20024;-86
2024/03/01 02:26:39;;;;;;;7.07;5.33;;;;;;;;;;6326148;28;20027;-86
2024/03/01 02:29:39;;;;;;;6.70;5.20;;;;;;;;;;6308124;28;20016;-86
2024/03/01 02:32:39;;;;;;;9.50;6.07;;;;;;;;;;6317144;28;20069;-86
2024/03/01 02:35:40;;;;;;;7.40;5.83;;;;;;;;;;6319801;28;20472;-86
2024/03/01 02:38:40;;;;;;;6.13;5.40;;;;;;;;;;6324185;28;20454;-86
2024/03/01 02:41:41;;;;;;;8.13;5.38;;;;;;;;;;6324335;28;20440;-86
2024/03/01 02:44:41;;;;;;;6.63;5.47;;;;;;;;;;6304946;28;20534;-86
2024/03/01 02:47:41;;;;;;;6.83;5.23;;;;;;;;;;6322668;28;20120;-86
2024/03/01 02:50:41;;;;;;;6.97;5.13;;;;;;;;;;6322902;28;20056;-86
2024/03/01 02:53:42;;;;;;;7.07;5.37;;;;;;;;;;6324231;28;20059;-86
2024/03/01 02:56:42;;;;;;;7.00;5.45;;;;;;;;;;6322974;28;20055;-86
2024/03/01 02:59:43;;;;;;;7.73;5.23;;;;;;;;;;6324465;28;20032;-86
2024/03/01 03:02:43;;;;;;;7.27;5.87;;;;;;;;;;6323596;28;20038;-86
2024/03/01 03:05:44;;;;;;;7.53;5.33;;;;;;;;;;6318386;28;20071;-86
2024/03/01 03:08:44;;;;;;;7.47;5.60;;;;;;;;;;6320292;28;20027;-86
2024/03/01 03:11:44;;;;;;;6.47;5.70;;;;;;;;;;6324272;28;20038;-86
2024/03/01 03:14:45;;;;;;;6.40;5.23;;;;;;;;;;6320699;28;20044;-86
2024/03/01 03:17:45;;;;;;;6.83;5.03;;;;;;;;;;6324520;28;20023;-86
2024/03/01 03:20:45;;;;;;;8.60;5.70;;;;;;;;;;6321597;28;20015;-86
2024/03/01 03:23:45;;;;;;;6.83;5.37;;;;;;;;;;6319725;28;20071;-86
2024/03/01 03:26:46;;;;;;;7.87;5.90;;;;;;;;;;6320086;28;20377;-86
2024/03/01 03:29:46;;;;;;;7.30;5.67;;;;;;;;;;6319266;28;20030;-86
2024/03/01 03:32:46;;;;;;;6.17;5.07;;;;;;;;;;6324592;28;20023;-81
2024/03/01 03:35:47;;;;;;;5.53;4.70;;;;;;;;;;6299718;28;20047;-81
2024/03/01 03:38:47;;;;;;;6.67;5.87;;;;;;;;;;6321353;28;20035;-81
2024/03/01 03:41:47;;;;;;;6.13;5.33;;;;;;;;;;6303852;28;20021;-81
2024/03/01 03:44:47;;;;;;;7.60;5.83;;;;;;;;;;6319122;28;20046;-81
2024/03/01 03:47:48;;;;;;;6.50;5.23;;;;;;;;;;6323716;28;20026;-81
2024/03/01 03:50:48;;;;;;;8.23;6.00;;;;;;;;;;6319075;28;20396;-80
2024/03/01 03:53:48;;;;;;;7.40;5.57;;;;;;;;;;6320005;28;20551;-81
2024/03/01 03:56:48;;;;;;;8.70;5.83;;;;;;;;;;6296588;28;20415;-80
2024/03/01 03:59:49;;;;;;;8.60;6.30;;;;;;;;;;6302826;28;20366;-80
2024/03/01 04:02:49;;;;;;;7.80;5.50;;;;;;;;;;6315360;28;20461;-81
2024/03/01 04:05:49;;;;;;;8.23;5.53;;;;;;;;;;6321997;28;20464;-82
2024/03/01 04:08:50;;;;;;;7.47;5.57;;;;;;;;;;6319024;28;20023;-81
2024/03/01 04:11:50;;;;;;;6.87;5.40;;;;;;;;;;6298148;28;20120;-80
2024/03/01 04:14:50;;;;;;;8.20;5.53;;;;;;;;;;6321632;28;20044;-81
2024/03/01 04:17:50;;;;;;;7.33;5.37;;;;;;;;;;6316949;28;20036;-81
2024/03/01 04:20:51;;;;;;;8.07;5.20;;;;;;;;;;6319407;28;20016;-81
2024/03/01 04:23:51;;;;;;;6.43;5.70;;;;;;;;;;6322042;28;20020;-81
2024/03/01 04:26:51;;;;;;;7.40;5.43;;;;;;;;;;6320155;28;20072;-80
2024/03/01 04:29:51;;;;;;;7.90;5.40;;;;;;;;;;6321645;28;20134;-81
2024/03/01 04:32:52;;;;;;;5.80;5.13;;;;;;;;;;6322414;28;20054;-80
2024/03/01 04:35:52;;;;;;;7.00;5.60;;;;;;;;;;6314384;28;20091;-80
2024/03/01 04:38:52;;;;;;;7.63;5.93;;;;;;;;;;6300415;28;20056;-80
2024/03/01 04:41:52;;;;;;;7.47;5.20;;;;;;;;;;6315564;28;20059;-80
2024/03/01 04:44:53;;;;;;;7.07;5.40;;;;;;;;;;6319148;28;20055;-80
2024/03/01 04:47:53;;;;;;;7.43;5.80;;;;;;;;;;6321504;28;20472;-80
2024/03/01 04:50:53;;;;;;;7.67;6.03;;;;;;;;;;6318130;28;20484;-80
2024/03/01 04:53:54;;;;;;;7.53;5.67;;;;;;;;;;6302691;28;20404;-81
2024/03/01 04:56:54;;;;;;;10.23;6.22;;;;;;;;;;6320319;28;20107;-81
2024/03/01 04:59:54;;;;;;;8.03;6.27;;;;;;;;;;6313625;28;20028;-80
2024/03/01 05:02:56;;;;;;;7.43;5.40;;;;;;;;;;6321751;28;20469;-80
2024/03/01 05:05:57;;;;;;;8.60;6.25;;;;;;;;;;6312759;28;20020;-80
2024/03/01 05:08:57;;;;;;;7.57;5.88;;;;;;;;;;6315706;28;20073;-80
2024/03/01 05:11:57;;;;;;;7.83;5.57;;;;;;;;;;6299757;28;20035;-81
2024/03/01 05:14:57;;;;;;;7.03;5.70;;;;;;;;;;6316799;28;20047;-81
2024/03/01 05:17:59;;;;;;;8.13;5.60;;;;;;;;;;6321232;28;20503;-80
2024/03/01 05:20:59;;;;;;;8.45;6.38;;;;;;;;;;6312547;28;20056;-80
2024/03/01 05:24:00;;;;;;;7.17;6.10;;;;;;;;;;6319163;28;20024;-80
2024/03/01 05:27:00;;;;;;;7.93;6.13;;;;;;;;;;6301645;28;20115;-80
2024/03/01 05:30:00;;;;;;;8.47;6.33;;;;;;;;;;6316856;28;20016;-80
2024/03/01 05:33:01;;;;;;;7.83;5.60;;;;;;;;;;6318876;28;20056;-80
2024/03/01 05:36:05;;;;;;;6.90;6.05;;;;;;;;;;6318175;28;20048;-80
2024/03/01 05:39:16;;;;;;;10.00;5.85;;;;;;;;;;6316946;28;20060;-80
2024/03/01 05:42:16;;;;;;;7.32;6.50;;;;;;;;;;6314583;28;20507;-80
2024/03/01 05:45:16;;;;;;;9.20;6.87;;;;;;;;;;6295260;28;20058;-80
2024/03/01 05:48:17;;;;;;;9.07;6.57;;;;;;;;;;6320633;28;20024;-80
2024/03/01 05:51:17;;;;;;;6.70;5.80;;;;;;;;;;6290823;28;20028;-79
2024/03/01 05:54:19;;;;;;;7.40;6.13;;;;;;;;;;6322672;28;20481;-86
2024/03/01 05:57:19;;;;;;;9.52;6.43;;;;;;;;;;6323925;28;20099;-87
2024/03/01 06:00:26;;;;;;;7.93;6.17;;;;;;;;;;6322542;28;20020;-85
2024/03/01 06:03:26;;;;;;;7.60;6.03;;;;;;;;;;6325285;28;20032;-86
2024/03/01 06:06:26;;;;;;;8.17;5.60;;;;;;;;;;6321683;28;20431;-84
2024/03/01 06:09:26;;;;;;;7.00;5.80;;;;;;;;;;6325601;28;20435;-85
2024/03/01 06:12:27;;;;;;;7.67;6.10;;;;;;;;;;6326283;28;20416;-88
2024/03/01 06:15:28;;;;;;;8.40;6.30;;;;;;;;;;6324618;28;20376;-88
2024/03/01 06:18:28;;;;;;;8.40;5.97;;;;;;;;;;6326069;28;20112;-86
2024/03/01 06:21:28;;;;;;;7.83;5.63;;;;;;;;;;6323709;28;20059;-86
2024/03/01 06:24:29;;;;;;;7.27;5.60;;;;;;;;;;6309548;28;20388;-90
2024/03/01 06:27:29;;;;;;;7.07;5.67;;;;;;;;;;6321776;28;20039;-88
2024/03/01 06:30:29;;;;;;;8.30;5.63;;;;;;;;;;6326309;28;20031;-86
2024/03/01 06:33:30;;;;;;;6.60;5.63;;;;;;;;;;6322964;28;20038;-84
2024/03/01 06:36:30;;;;;;;8.03;6.20;;;;;;;;;;6322198;28;20036;-86
2024/03/01 06:39:30;;;;;;;7.40;5.87;;;;;;;;;;6306656;28;20080;-86
2024/03/01 06:42:31;;;;;;;9.37;6.27;;;;;;;;;;6325370;28;20024;-83
2024/03/01 06:45:32;;;;;;;7.67;5.63;;;;;;;;;;6298799;28;20038;-85
2024/03/01 06:48:35;;;;;;;6.68;5.43;;;;;;;;;;6323682;28;20040;-83
2024/03/01 06:51:35;;;;;;;7.18;5.80;;;;;;;;;;6323370;28;20051;-85
2024/03/01 06:54:36;;;;;;;6.43;5.80;;;;;;;;;;6305218;28;20040;-83
2024/03/01 06:57:36;;;;;;;7.30;5.97;;;;;;;;;;6325597;28;20031;-83
2024/03/01 07:00:37;;;;;;;8.50;6.35;;;;;;;;;;6325070;28;20459;-83
2024/03/01 07:03:37;;;;;;;7.10;5.90;;;;;;;;;;6304690;28;20038;-83
2024/03/01 07:06:37;;;;;;;6.93;6.23;;;;;;;;;;6321341;28;20020;-83
2024/03/01 07:09:37;;;;;;;10.73;7.87;;;;;;;;;;6319853;28;20016;-83
2024/03/01 07:12:38;;;;;;;8.93;7.40;;;;;;;;;;6321710;28;20052;-82
2024/03/01 07:15:38;;;;;;;9.50;7.03;;;;;;;;;;6300172;28;20028;-83
2024/03/01 07:18:38;;;;;;;8.00;6.50;;;;;;;;;;6321681;28;20028;-85
2024/03/01 07:21:38;;;;;;;9.80;7.03;;;;;;;;;;6321519;28;20016;-82
2024/03/01 07:24:39;;;;;;;9.23;6.70;;;;;;;;;;6318685;28;20031;-84
2024/03/01 07:27:39;;;;;;;9.83;6.67;;;;;;;;;;6295102;28;20016;-84
2024/03/01 07:30:40;;;;;;;8.37;6.43;;;;;;;;;;6321927;28;20062;-83
2024/03/01 07:33:40;;;;;;;9.40;6.00;;;;;;;;;;6322254;28;20080;-81
2024/03/01 07:36:41;;;;;;;8.13;6.22;;;;;;;;;;6320806;28;20570;-83
2024/03/01 07:39:41;;;;;;;7.93;6.00;;;;;;;;;;6321247;28;20555;-85
2024/03/01 07:42:41;;;;;;;9.23;6.77;;;;;;;;;;6302048;28;20077;-84
2024/03/01 07:45:41;;;;;;;8.07;6.17;;;;;;;;;;6323985;28;20145;-85
2024/03/01 07:48:45;;;;;;;13.83;6.97;;;;;;;;;;6323138;28;20024;-84
2024/03/01 07:51:48;;;;;;;10.15;7.10;;;;;;;;;;6321288;28;20032;-84
2024/03/01 07:54:48;;;;;;;9.25;6.72;;;;;;;;;;6302232;28;20469;-85
2024/03/01 07:57:48;;;;;;;8.27;6.80;;;;;;;;;;6299535;28;20024;-85
2024/03/01 08:00:49;;;;;;;8.90;6.47;;;;;;;;;;6322075;28;20047;-85
2024/03/01 08:03:49;;;;;;;7.63;6.60;;;;;;;;;;6321684;28;20038;-84
2024/03/01 08:06:49;;;;;;;8.67;6.53;;;;;;;;;;6314507;28;20484;-85
2024/03/01 08:09:50;;;;;;;10.13;6.37;;;;;;;;;;6321698;28;20035;-82
2024/03/01 08:12:51;;;;;;;8.80;7.07;;;;;;;;;;6317353;28;20400;-79
2024/03/01 08:15:51;;;;;;;9.77;7.17;;;;;;;;;;6319887;28;20106;-78
2024/03/01 08:18:51;;;;;;;8.07;6.63;;;;;;;;;;6321031;28;20273;-79
2024/03/01 08:21:56;;;;;;;7.50;6.27;;;;;;;;;;6319426;28;20038;-79
2024/03/01 08:24:57;;;;;;;8.48;6.60;;;;;;;;;;6321492;28;20012;-78
2024/03/01 08:27:57;;;;;;;7.63;6.28;;;;;;;;;;6321508;28;20061;-78
2024/03/01 08:31:04;;;;;;;7.60;6.10;;;;;;;;;;6320078;28;20039;-78
2024/03/01 08:34:08;;;;;;;8.93;6.43;;;;;;;;;;6320417;28;20016;-78
2024/03/01 08:37:13;;;;;;;8.82;6.20;;;;;;;;;;6298599;28;20130;-81
2024/03/01 08:40:23;;;;;;;8.05;6.30;;;;;;;;;;6313418;28;20099;-77
2024/03/01 08:43:23;;;;;;;8.80;6.85;;;;;;;;;;6316624;28;20032;-79
2024/03/01 08:46:30;;;;;;;10.68;7.15;;;;;;;;;;6300964;28;20074;-79
2024/03/01 08:49:53;;;;;;;10.00;6.28;;;;;;;;;;6316461;28;20024;-79
2024/03/01 08:52:55;;;;;;;8.60;6.68;;;;;;;;;;6277744;28;20075;-80
2024/03/01 08:55:55;;;;;;;7.10;6.13;;;;;;;;;;6314762;28;20027;-80
2024/03/01 08:58:55;;;;;;;9.80;6.77;;;;;;;;;;6308602;28;20469;-80
2024/03/01 09:01:56;;;;;;;10.00;6.53;;;;;;;;;;6298697;28;20766;-79
2024/03/01 09:04:56;;;;;;;8.87;6.47;;;;;;;;;;6314359;28;20039;-79
2024/03/01 09:08:00;;;;;;;7.67;6.07;;;;;;;;;;6304808;28;20039;-79
2024/03/01 09:11:00;;;;;;;10.93;6.55;;;;;;;;;;6315980;28;20107;-80
2024/03/01 09:14:01;;;;;;;7.07;6.33;;;;;;;;;;6316432;28;20070;-80
2024/03/01 09:17:01;;;;;;;7.67;6.13;;;;;;;;;;6320117;28;20024;-80
2024/03/01 09:20:03;;;;;;;7.03;5.90;;;;;;;;;;6317194;28;20102;-79
2024/03/01 09:23:12;;;;;;;7.15;5.90;;;;;;;;;;6317575;28;20028;-80
2024/03/01 09:26:12;;;;;;;8.32;5.47;;;;;;;;;;6318991;28;20028;-80
2024/03/01 09:29:31;;;;;;;7.73;6.07;;;;;;;;;;6301318;28;20460;-80
2024/03/01 09:32:32;;;;;;;7.68;6.05;;;;;;;;;;6302957;28;20023;-80
2024/03/01 09:35:33;;;;;;;;;;;;;;;;;;6316705;28;20020;-79
2024/03/01 09:38:54;;;;;;;5.35;4.43;;;;;;;;;;6326124;28;20373;-79
2024/03/01 09:42:09;;;;;;;7.07;5.53;;;;;;;;;;6299247;28;20103;-75
2024/03/01 09:45:28;;;;;;;7.63;5.43;;;;;;;;;;6318982;28;20024;-74
2024/03/01 09:48:47;;;;;;;8.38;5.75;;;;;;;;;;6319844;28;20028;-75
2024/03/01 09:52:06;;;;;;;8.32;5.35;;;;;;;;;;6317398;28;20042;-75
2024/03/01 09:55:25;;;;;;;8.75;5.63;;;;;;;;;;6318814;28;20024;-75
2024/03/01 09:58:44;;;;;;;6.63;4.97;;;;;;;;;;6319763;28;20036;-76
2024/03/01 10:02:03;;;;;;;8.23;5.57;;;;;;;;;;6310587;28;20475;-75
2024/03/01 10:05:22;;;;;;;6.30;5.25;;;;;;;;;;6312494;28;20075;-76
2024/03/01 10:08:42;;;;;;;8.00;5.35;;;;;;;;;;6318521;28;20040;-80
2024/03/01 10:12:01;;;;;;;6.10;5.05;;;;;;;;;;6319141;28;20114;-78
2024/03/01 19:23:45;;;;;;;10.13;8.30;;;;;;;;;;6129252;28;20688;-78
2024/03/01 19:26:45;;;;;;;12.55;9.07;;;;;;;;;;6300361;28;20048;-77
2024/03/01 19:29:48;;;;;;;12.23;9.13;;;;;;;;;;6306305;28;20477;-78
2024/03/01 19:32:48;;;;;;;11.10;9.13;;;;;;;;;;6298862;28;20028;-78
2024/03/01 19:35:48;;;;;;;12.47;9.57;;;;;;;;;;6316041;28;20024;-78
2024/03/01 19:38:49;;;;;;;10.80;9.40;;;;;;;;;;6324234;28;20012;-80
2024/03/01 19:41:52;;;;;;;13.40;9.23;;;;;;;;;;6325772;28;20016;-79
2024/03/01 19:44:52;;;;;;;13.23;9.38;;;;;;;;;;6324041;28;20465;-79
2024/03/01 19:47:52;;;;;;;14.83;10.27;;;;;;;;;;6325626;28;20074;-80
2024/03/01 19:50:52;;;;;;;12.10;9.80;;;;;;;;;;6304786;28;20441;-80
2024/03/01 19:53:53;;;;;;;12.00;9.67;;;;;;;;;;6323913;28;20035;-81
2024/03/01 19:56:53;;;;;;;10.63;9.10;;;;;;;;;;6323532;28;20027;-80
2024/03/01 19:59:54;;;;;;;14.80;10.07;;;;;;;;;;6324415;28;20013;-77
2024/03/01 20:02:54;;;;;;;12.88;10.10;;;;;;;;;;6325045;28;20020;-80
2024/03/01 20:05:55;;;;;;;11.90;9.90;;;;;;;;;;6304987;28;20111;-80
2024/03/01 20:08:55;;;;;;;14.00;10.23;;;;;;;;;;6295075;28;20063;-81
2024/03/01 20:11:57;;;;;;;14.73;10.07;;;;;;;;;;6299997;28;20115;-81
2024/03/01 20:14:57;;;;;;;12.98;10.50;;;;;;;;;;6312060;28;20032;-80
2024/03/01 20:17:58;;;;;;;16.37;11.10;;;;;;;;;;6324785;28;20020;-80
2024/03/01 20:20:59;;;;;;;12.75;10.27;;;;;;;;;;6322926;28;20020;-80
2024/03/01 20:23:59;;;;;;;14.63;10.60;;;;;;;;;;6323788;28;20021;-80
2024/03/01 20:26:59;;;;;;;13.67;10.17;;;;;;;;;;6324115;28;20032;-81
2024/03/01 20:30:00;;;;;;;13.07;10.03;;;;;;;;;;6324786;28;20016;-81
2024/03/01 20:33:00;;;;;;;15.10;10.80;;;;;;;;;;6326842;28;20476;-81
2024/03/01 20:36:00;;;;;;;14.30;9.97;;;;;;;;;;6323448;28;20016;-81
2024/03/01 20:39:00;;;;;;;14.73;10.37;;;;;;;;;;6324572;28;20077;-81
2024/03/01 20:42:01;;;;;;;15.03;10.33;;;;;;;;;;6321559;28;20434;-81
2024/03/01 20:45:01;;;;;;;12.20;9.77;;;;;;;;;;6318625;28;20473;-81
2024/03/01 20:48:04;;;;;;;13.83;10.23;;;;;;;;;;6306656;28;20031;-81
2024/03/01 20:51:04;;;;;;;15.15;10.52;;;;;;;;;;6322847;28;20027;-81
2024/03/01 20:54:06;;;;;;;15.80;10.23;;;;;;;;;;6323259;28;20024;-81
2024/03/01 20:57:07;;;;;;;14.32;10.75;;;;;;;;;;6323678;28;20031;-81
2024/03/01 21:00:10;;;;;;;16.80;11.18;;;;;;;;;;6321484;28;20021;-81
2024/03/01 21:03:10;;;;;;;14.55;10.82;;;;;;;;;;6321012;28;20105;-81
2024/03/01 21:06:10;;;;;;;13.50;10.60;;;;;;;;;;6288991;28;20032;-81
2024/03/01 21:09:10;;;;;;;15.80;10.93;;;;;;;;;;6322833;28;20453;-81
2024/03/01 21:12:12;;;;;;;;;;;;;;;;;;6305743;28;20073;-81
2024/03/01 21:15:12;;;;;;;14.45;9.52;;;;;;;;;;6306337;28;20011;-81
2024/03/01 21:18:13;;;;;;;16.90;10.57;;;;;;;;;;6315553;28;20020;-81
2024/03/01 21:21:14;;;;;;;15.55;10.57;;;;;;;;;;6323060;28;20389;-81
2024/03/01 21:24:14;;;;;;;16.03;11.50;;;;;;;;;;6323764;28;20067;-81
2024/03/01 21:27:14;;;;;;;15.83;10.63;;;;;;;;;;6305428;28;20120;-81
2024/03/01 21:30:15;;;;;;;14.10;10.53;;;;;;;;;;6297748;28;20016;-81
2024/03/01 21:33:15;;;;;;;13.57;10.65;;;;;;;;;;6305399;28;20121;-80
2024/03/01 21:36:17;;;;;;;13.43;10.20;;;;;;;;;;6301786;28;20036;-81
2024/03/01 21:39:17;;;;;;;14.93;10.77;;;;;;;;;;6322490;28;20040;-80
2024/03/01 21:42:17;;;;;;;17.73;10.80;;;;;;;;;;6323788;28;20020;-80
2024/03/01 21:45:18;;;;;;;15.27;10.23;;;;;;;;;;6322352;28;20380;-80
2024/03/01 21:48:18;;;;;;;16.93;11.47;;;;;;;;;;6323197;28;20016;-80
2024/03/01 21:51:20;;;;;;;17.27;10.80;;;;;;;;;;6315137;28;20032;-80
2024/03/01 21:54:20;;;;;;;14.98;10.30;;;;;;;;;;6280228;28;20029;-80
2024/03/01 21:57:20;;;;;;;13.87;10.40;;;;;;;;;;6319417;28;20046;-80
2024/03/01 22:00:20;;;;;;;17.00;11.43;;;;;;;;;;6304002;28;20054;-80
2024/03/01 22:03:21;;;;;;;14.80;10.67;;;;;;;;;;6294956;28;20059;-80
2024/03/01 22:06:21;;;;;;;15.43;10.90;;;;;;;;;;6310942;28;20098;-81
2024/03/01 22:09:21;;;;;;;16.73;11.13;;;;;;;;;;6280515;28;20089;-79
2024/03/01 22:12:22;;;;;;;14.40;11.13;;;;;;;;;;6308311;28;20751;-80
2024/03/01 22:15:22;;;;;;;15.77;11.23;;;;;;;;;;6314967;28;20584;-80
2024/03/01 22:18:22;;;;;;;13.43;10.33;;;;;;;;;;6317008;28;20039;-80
2024/03/01 22:21:22;;;;;;;14.57;11.03;;;;;;;;;;6319696;28;20027;-80
2024/03/01 22:24:23;;;;;;;13.70;10.63;;;;;;;;;;6321248;28;20090;-79
2024/03/01 22:27:23;;;;;;;15.45;10.27;;;;;;;;;;6314734;28;20060;-78
2024/03/01 22:30:24;;;;;;;16.67;10.47;;;;;;;;;;6323184;28;20030;-77
2024/03/01 22:33:25;;;;;;;15.43;10.93;;;;;;;;;;6323114;28;20020;-77
2024/03/01 22:36:25;;;;;;;16.60;10.80;;;;;;;;;;6310170;28;20031;-79
2024/03/01 22:39:26;;;;;;;15.17;10.93;;;;;;;;;;6326629;28;20031;-78
2024/03/01 22:42:26;;;;;;;15.97;11.03;;;;;;;;;;6324374;28;20031;-78
2024/03/01 22:45:26;;;;;;;16.50;10.97;;;;;;;;;;6324160;28;20063;-79
2024/03/01 22:48:30;;;;;;;15.77;11.03;;;;;;;;;;6322330;28;20038;-79
2024/03/01 22:51:31;;;;;;;16.80;11.45;;;;;;;;;;6322540;28;20020;-78
2024/03/01 22:54:31;;;;;;;14.83;11.07;;;;;;;;;;6326317;28;20499;-78
2024/03/01 22:57:36;;;;;;;12.93;10.10;;;;;;;;;;6321638;28;20024;-78
2024/03/01 23:00:41;;;;;;;15.68;10.38;;;;;;;;;;6325583;28;20623;-78
2024/03/01 23:03:41;;;;;;;17.75;10.93;;;;;;;;;;6326326;28;20078;-78
2024/03/01 23:06:43;;;;;;;15.10;10.20;;;;;;;;;;6321091;28;20421;-78
2024/03/01 23:09:43;;;;;;;17.23;11.25;;;;;;;;;;6326023;28;20028;-79
2024/03/01 23:12:45;;;;;;;16.67;11.00;;;;;;;;;;6325075;28;20039;-79
2024/03/01 23:15:49;;;;;;;16.95;11.30;;;;;;;;;;6322484;28;20032;-78
2024/03/01 23:18:50;;;;;;;15.70;11.07;;;;;;;;;;6325208;28;20472;-79
2024/03/01 23:21:51;;;;;;;16.00;10.88;;;;;;;;;;6324080;28;20020;-78
2024/03/01 23:24:51;;;;;;;15.73;11.03;;;;;;;;;;6324614;28;20051;-78
2024/03/01 23:27:51;;;;;;;17.17;10.80;;;;;;;;;;6302667;28;20036;-78
2024/03/01 23:30:52;;;;;;;15.83;10.23;;;;;;;;;;6316995;28;20491;-78
2024/03/01 23:33:52;;;;;;;16.98;11.20;;;;;;;;;;6319659;28;20447;-79
2024/03/01 23:36:53;;;;;;;14.63;10.67;;;;;;;;;;6321959;28;20098;-78
2024/03/01 23:39:53;;;;;;;16.50;10.30;;;;;;;;;;6325399;28;20016;-78
2024/03/01 23:42:53;;;;;;;15.87;10.30;;;;;;;;;;6322606;28;20096;-78
2024/03/01 23:45:53;;;;;;;16.27;10.97;;;;;;;;;;6322198;28;20031;-78
2024/03/01 23:48:54;;;;;;;15.07;10.50;;;;;;;;;;6293457;28;20032;-78
2024/03/01 23:51:54;;;;;;;15.13;10.27;;;;;;;;;;6313229;28;20178;-80
2024/03/01 23:54:54;;;;;;;15.73;10.63;;;;;;;;;;6310390;28;20020;-78
2024/03/01 23:57:55;;;;;;;16.13;10.20;;;;;;;;;;6324468;28;20031;-78
